sensor_id;sensor_type;location;lat;lon;timestamp;temperature;humidity
7970;DHT22;4030;52.362;9.206;2022-10-22T00:06:06;15.90;79.70
7970;DHT22;4030;52.362;9.206;2022-10-22T00:08:32;15.80;79.60
7970;DHT22;4030;52.362;9.206;2022-10-22T00:25:35;15.70;79.60
7970;DHT22;4030;52.362;9.206;2022-10-22T00:28:02;15.80;79.70
7970;DHT22;4030;52.362;9.206;2022-10-22T00:30:28;15.80;79.70
7970;DHT22;4030;52.362;9.206;2022-10-22T00:32:53;15.70;79.60
7970;DHT22;4030;52.362;9.206;2022-10-22T00:35:19;15.80;79.80
7970;DHT22;4030;52.362;9.206;2022-10-22T00:37:45;15.80;79.80
7970;DHT22;4030;52.362;9.206;2022-10-22T00:40:11;15.70;79.60
7970;DHT22;4030;52.362;9.206;2022-10-22T00:42:37;15.60;79.50
7970;DHT22;4030;52.362;9.206;2022-10-22T00:47:42;15.70;79.60
7970;DHT22;4030;52.362;9.206;2022-10-22T00:50:15;15.70;79.60
7970;DHT22;4030;52.362;9.206;2022-10-22T00:53:00;15.60;79.50
7970;DHT22;4030;52.362;9.206;2022-10-22T00:55:27;15.60;79.40
7970;DHT22;4030;52.362;9.206;2022-10-22T00:57:55;15.50;79.40
7970;DHT22;4030;52.362;9.206;2022-10-22T01:00:22;15.60;79.50
7970;DHT22;4030;52.362;9.206;2022-10-22T01:02:49;15.60;79.50
7970;DHT22;4030;52.362;9.206;2022-10-22T01:05:15;15.60;79.50
7970;DHT22;4030;52.362;9.206;2022-10-22T01:07:47;15.50;79.40
7970;DHT22;4030;52.362;9.206;2022-10-22T01:10:26;15.50;79.50
7970;DHT22;4030;52.362;9.206;2022-10-22T01:21:15;15.50;79.40
7970;DHT22;4030;52.362;9.206;2022-10-22T01:30:06;15.40;79.40
7970;DHT22;4030;52.362;9.206;2022-10-22T01:32:39;15.40;79.40
7970;DHT22;4030;52.362;9.206;2022-10-22T01:35:11;15.50;79.50
7970;DHT22;4030;52.362;9.206;2022-10-22T01:37:44;15.30;79.30
7970;DHT22;4030;52.362;9.206;2022-10-22T01:40:14;15.60;79.60
7970;DHT22;4030;52.362;9.206;2022-10-22T01:42:40;15.30;79.30
7970;DHT22;4030;52.362;9.206;2022-10-22T01:45:11;15.40;79.30
7970;DHT22;4030;52.362;9.206;2022-10-22T01:50:34;15.20;79.20
7970;DHT22;4030;52.362;9.206;2022-10-22T01:58:44;15.20;79.20
7970;DHT22;4030;52.362;9.206;2022-10-22T02:04:22;15.40;79.40
7970;DHT22;4030;52.362;9.206;2022-10-22T02:06:58;15.40;79.40
7970;DHT22;4030;52.362;9.206;2022-10-22T02:09:27;15.40;79.50
7970;DHT22;4030;52.362;9.206;2022-10-22T02:11:54;15.30;79.40
7970;DHT22;4030;52.362;9.206;2022-10-22T02:16:48;15.30;79.40
7970;DHT22;4030;52.362;9.206;2022-10-22T02:19:24;15.40;79.60
7970;DHT22;4030;52.362;9.206;2022-10-22T02:21:52;15.50;79.60
7970;DHT22;4030;52.362;9.206;2022-10-22T02:24:19;15.30;79.50
7970;DHT22;4030;52.362;9.206;2022-10-22T02:26:58;15.40;79.60
7970;DHT22;4030;52.362;9.206;2022-10-22T02:29:33;15.40;79.60
7970;DHT22;4030;52.362;9.206;2022-10-22T02:32:04;15.30;79.60
7970;DHT22;4030;52.362;9.206;2022-10-22T02:34:32;15.40;79.70
7970;DHT22;4030;52.362;9.206;2022-10-22T02:36:59;15.30;79.60
7970;DHT22;4030;52.362;9.206;2022-10-22T02:39:26;15.40;79.70
7970;DHT22;4030;52.362;9.206;2022-10-22T02:41:52;15.30;79.70
7970;DHT22;4030;52.362;9.206;2022-10-22T02:44:20;15.40;79.80
7970;DHT22;4030;52.362;9.206;2022-10-22T02:46:47;15.30;79.70
7970;DHT22;4030;52.362;9.206;2022-10-22T02:49:13;15.40;79.80
7970;DHT22;4030;52.362;9.206;2022-10-22T02:51:38;15.40;79.80
7970;DHT22;4030;52.362;9.206;2022-10-22T03:06:14;15.60;80.10
7970;DHT22;4030;52.362;9.206;2022-10-22T03:11:07;15.40;79.80
7970;DHT22;4030;52.362;9.206;2022-10-22T03:21:07;15.40;79.70
7970;DHT22;4030;52.362;9.206;2022-10-22T03:23:35;15.40;79.80
7970;DHT22;4030;52.362;9.206;2022-10-22T03:26:02;15.30;79.70
7970;DHT22;4030;52.362;9.206;2022-10-22T03:28:28;15.40;79.80
7970;DHT22;4030;52.362;9.206;2022-10-22T03:33:20;15.40;79.80
7970;DHT22;4030;52.362;9.206;2022-10-22T03:35:46;15.50;79.90
7970;DHT22;4030;52.362;9.206;2022-10-22T03:38:13;15.40;79.80
7970;DHT22;4030;52.362;9.206;2022-10-22T03:40:40;15.30;79.70
7970;DHT22;4030;52.362;9.206;2022-10-22T03:43:07;15.30;79.80
7970;DHT22;4030;52.362;9.206;2022-10-22T03:47:59;15.50;80.00
7970;DHT22;4030;52.362;9.206;2022-10-22T03:50:24;15.30;79.80
7970;DHT22;4030;52.362;9.206;2022-10-22T03:52:50;15.40;80.00
7970;DHT22;4030;52.362;9.206;2022-10-22T03:55:17;15.30;79.90
7970;DHT22;4030;52.362;9.206;2022-10-22T03:57:43;15.30;79.90
7970;DHT22;4030;52.362;9.206;2022-10-22T04:00:09;15.30;79.90
7970;DHT22;4030;52.362;9.206;2022-10-22T04:02:35;15.20;79.80
7970;DHT22;4030;52.362;9.206;2022-10-22T04:05:00;15.20;79.80
7970;DHT22;4030;52.362;9.206;2022-10-22T04:07:27;15.20;79.80
7970;DHT22;4030;52.362;9.206;2022-10-22T04:09:52;15.20;79.90
7970;DHT22;4030;52.362;9.206;2022-10-22T04:12:18;15.20;79.80
7970;DHT22;4030;52.362;9.206;2022-10-22T04:24:30;15.20;79.90
7970;DHT22;4030;52.362;9.206;2022-10-22T04:26:56;15.20;79.90
7970;DHT22;4030;52.362;9.206;2022-10-22T04:29:22;15.10;79.80
7970;DHT22;4030;52.362;9.206;2022-10-22T04:41:35;15.10;79.80
7970;DHT22;4030;52.362;9.206;2022-10-22T04:44:02;15.10;79.70
7970;DHT22;4030;52.362;9.206;2022-10-22T04:46:30;15.10;79.80
7970;DHT22;4030;52.362;9.206;2022-10-22T04:51:24;15.00;79.70
7970;DHT22;4030;52.362;9.206;2022-10-22T04:53:50;15.10;79.80
7970;DHT22;4030;52.362;9.206;2022-10-22T04:56:21;15.00;79.60
7970;DHT22;4030;52.362;9.206;2022-10-22T04:58:51;15.00;79.70
7970;DHT22;4030;52.362;9.206;2022-10-22T05:01:22;15.00;79.70
7970;DHT22;4030;52.362;9.206;2022-10-22T05:03:51;14.90;79.50
7970;DHT22;4030;52.362;9.206;2022-10-22T05:06:18;14.90;79.50
7970;DHT22;4030;52.362;9.206;2022-10-22T05:08:45;15.00;79.60
7970;DHT22;4030;52.362;9.206;2022-10-22T05:11:17;14.90;79.50
7970;DHT22;4030;52.362;9.206;2022-10-22T05:13:44;15.00;79.60
7970;DHT22;4030;52.362;9.206;2022-10-22T05:18:37;14.90;79.50
7970;DHT22;4030;52.362;9.206;2022-10-22T05:21:07;14.90;79.50
7970;DHT22;4030;52.362;9.206;2022-10-22T05:23:35;14.90;79.60
7970;DHT22;4030;52.362;9.206;2022-10-22T05:26:02;14.90;79.50
7970;DHT22;4030;52.362;9.206;2022-10-22T05:30:55;14.80;79.40
7970;DHT22;4030;52.362;9.206;2022-10-22T05:35:49;14.70;79.20
7970;DHT22;4030;52.362;9.206;2022-10-22T05:38:15;14.80;79.30
7970;DHT22;4030;52.362;9.206;2022-10-22T05:40:42;14.80;79.40
7970;DHT22;4030;52.362;9.206;2022-10-22T05:43:07;14.70;79.20
7970;DHT22;4030;52.362;9.206;2022-10-22T05:45:41;14.90;79.50
7970;DHT22;4030;52.362;9.206;2022-10-22T05:48:07;14.60;79.10
7970;DHT22;4030;52.362;9.206;2022-10-22T05:50:37;14.70;79.10
7970;DHT22;4030;52.362;9.206;2022-10-22T05:53:06;14.60;79.10
7970;DHT22;4030;52.362;9.206;2022-10-22T05:55:36;14.60;79.10
7970;DHT22;4030;52.362;9.206;2022-10-22T05:58:03;14.70;79.10
7970;DHT22;4030;52.362;9.206;2022-10-22T06:00:29;14.70;79.20
7970;DHT22;4030;52.362;9.206;2022-10-22T06:07:47;14.50;78.80
7970;DHT22;4030;52.362;9.206;2022-10-22T06:10:16;14.60;78.90
7970;DHT22;4030;52.362;9.206;2022-10-22T06:15:11;14.50;78.90
7970;DHT22;4030;52.362;9.206;2022-10-22T06:20:05;14.50;78.80
7970;DHT22;4030;52.362;9.206;2022-10-22T06:22:32;14.50;78.70
7970;DHT22;4030;52.362;9.206;2022-10-22T06:37:09;14.50;78.60
7970;DHT22;4030;52.362;9.206;2022-10-22T06:39:34;14.60;78.70
7970;DHT22;4030;52.362;9.206;2022-10-22T06:42:00;14.60;78.70
7970;DHT22;4030;52.362;9.206;2022-10-22T06:44:26;14.60;78.70
7970;DHT22;4030;52.362;9.206;2022-10-22T06:49:19;14.60;78.60
7970;DHT22;4030;52.362;9.206;2022-10-22T06:51:49;14.50;78.50
7970;DHT22;4030;52.362;9.206;2022-10-22T06:56:41;14.60;78.70
7970;DHT22;4030;52.362;9.206;2022-10-22T06:59:07;14.70;78.80
7970;DHT22;4030;52.362;9.206;2022-10-22T07:01:34;14.60;78.60
7970;DHT22;4030;52.362;9.206;2022-10-22T07:04:01;14.60;78.50
7970;DHT22;4030;52.362;9.206;2022-10-22T07:06:28;14.50;78.40
7970;DHT22;4030;52.362;9.206;2022-10-22T07:08:55;14.60;78.50
7970;DHT22;4030;52.362;9.206;2022-10-22T07:11:27;14.80;78.60
7970;DHT22;4030;52.362;9.206;2022-10-22T07:13:55;14.70;78.40
7970;DHT22;4030;52.362;9.206;2022-10-22T07:16:22;14.80;78.50
7970;DHT22;4030;52.362;9.206;2022-10-22T07:18:48;14.80;78.50
7970;DHT22;4030;52.362;9.206;2022-10-22T07:21:16;14.70;78.30
7970;DHT22;4030;52.362;9.206;2022-10-22T07:26:11;14.80;78.10
7970;DHT22;4030;52.362;9.206;2022-10-22T07:28:39;14.80;78.10
7970;DHT22;4030;52.362;9.206;2022-10-22T07:31:06;15.00;78.00
7970;DHT22;4030;52.362;9.206;2022-10-22T07:36:02;15.20;78.20
7970;DHT22;4030;52.362;9.206;2022-10-22T07:38:29;15.30;78.20
7970;DHT22;4030;52.362;9.206;2022-10-22T07:40:56;15.30;78.00
7970;DHT22;4030;52.362;9.206;2022-10-22T07:43:22;15.30;78.00
7970;DHT22;4030;52.362;9.206;2022-10-22T07:45:48;15.40;78.20
7970;DHT22;4030;52.362;9.206;2022-10-22T07:48:14;15.40;78.00
7970;DHT22;4030;52.362;9.206;2022-10-22T07:50:40;15.50;78.20
7970;DHT22;4030;52.362;9.206;2022-10-22T07:53:06;15.40;78.10
7970;DHT22;4030;52.362;9.206;2022-10-22T07:55:33;15.60;78.20
7970;DHT22;4030;52.362;9.206;2022-10-22T07:57:59;15.60;78.20
7970;DHT22;4030;52.362;9.206;2022-10-22T08:00:25;15.80;78.30
7970;DHT22;4030;52.362;9.206;2022-10-22T08:02:51;15.70;78.30
7970;DHT22;4030;52.362;9.206;2022-10-22T08:07:43;15.90;80.50
7970;DHT22;4030;52.362;9.206;2022-10-22T08:10:09;15.90;82.10
7970;DHT22;4030;52.362;9.206;2022-10-22T08:15:02;16.10;83.60
7970;DHT22;4030;52.362;9.206;2022-10-22T08:27:13;16.70;82.80
7970;DHT22;4030;52.362;9.206;2022-10-22T08:50:53;18.60;80.50
7970;DHT22;4030;52.362;9.206;2022-10-22T08:56:21;19.30;78.90
7970;DHT22;4030;52.362;9.206;2022-10-22T09:01:45;19.90;77.30
7970;DHT22;4030;52.362;9.206;2022-10-22T09:04:25;20.30;76.70
7970;DHT22;4030;52.362;9.206;2022-10-22T09:06:57;20.60;76.00
7970;DHT22;4030;52.362;9.206;2022-10-22T09:09:28;20.80;75.10
7970;DHT22;4030;52.362;9.206;2022-10-22T09:11:58;21.20;74.50
7970;DHT22;4030;52.362;9.206;2022-10-22T09:26:13;22.60;70.70
7970;DHT22;4030;52.362;9.206;2022-10-22T09:28:39;22.60;70.80
7970;DHT22;4030;52.362;9.206;2022-10-22T09:31:13;22.40;70.90
7970;DHT22;4030;52.362;9.206;2022-10-22T09:33:41;22.30;71.00
7970;DHT22;4030;52.362;9.206;2022-10-22T09:36:16;22.20;71.20
7970;DHT22;4030;52.362;9.206;2022-10-22T09:38:51;22.10;71.20
7970;DHT22;4030;52.362;9.206;2022-10-22T09:41:19;22.00;71.00
7970;DHT22;4030;52.362;9.206;2022-10-22T09:43:46;22.00;70.90
7970;DHT22;4030;52.362;9.206;2022-10-22T09:46:18;22.00;71.30
7970;DHT22;4030;52.362;9.206;2022-10-22T09:51:47;22.80;70.20
7970;DHT22;4030;52.362;9.206;2022-10-22T09:54:40;23.50;68.70
7970;DHT22;4030;52.362;9.206;2022-10-22T09:57:16;23.80;67.20
7970;DHT22;4030;52.362;9.206;2022-10-22T09:59:48;24.20;66.50
7970;DHT22;4030;52.362;9.206;2022-10-22T10:02:19;24.80;65.60
7970;DHT22;4030;52.362;9.206;2022-10-22T10:04:53;25.30;64.00
7970;DHT22;4030;52.362;9.206;2022-10-22T10:09:47;26.00;62.10
7970;DHT22;4030;52.362;9.206;2022-10-22T10:15:27;26.30;61.00
7970;DHT22;4030;52.362;9.206;2022-10-22T10:18:33;26.20;61.40
7970;DHT22;4030;52.362;9.206;2022-10-22T10:24:25;25.10;63.20
7970;DHT22;4030;52.362;9.206;2022-10-22T10:27:04;24.70;64.20
7970;DHT22;4030;52.362;9.206;2022-10-22T10:30:04;24.20;64.90
7970;DHT22;4030;52.362;9.206;2022-10-22T10:32:57;23.80;65.50
7970;DHT22;4030;52.362;9.206;2022-10-22T10:35:35;23.50;66.10
7970;DHT22;4030;52.362;9.206;2022-10-22T10:38:18;23.40;66.50
7970;DHT22;4030;52.362;9.206;2022-10-22T10:41:12;23.70;65.70
7970;DHT22;4030;52.362;9.206;2022-10-22T10:58:33;25.30;62.50
7970;DHT22;4030;52.362;9.206;2022-10-22T11:06:41;26.30;60.20
7970;DHT22;4030;52.362;9.206;2022-10-22T11:12:01;27.00;59.00
7970;DHT22;4030;52.362;9.206;2022-10-22T11:14:30;27.20;58.50
7970;DHT22;4030;52.362;9.206;2022-10-22T11:17:12;27.40;58.10
7970;DHT22;4030;52.362;9.206;2022-10-22T11:19:44;27.40;57.80
7970;DHT22;4030;52.362;9.206;2022-10-22T11:22:35;27.40;58.00
7970;DHT22;4030;52.362;9.206;2022-10-22T11:27:41;26.90;58.30
7970;DHT22;4030;52.362;9.206;2022-10-22T11:30:20;27.00;58.10
7970;DHT22;4030;52.362;9.206;2022-10-22T11:32:50;27.00;58.10
7970;DHT22;4030;52.362;9.206;2022-10-22T11:35:25;26.70;58.10
7970;DHT22;4030;52.362;9.206;2022-10-22T11:38:04;26.60;58.50
7970;DHT22;4030;52.362;9.206;2022-10-22T11:40:35;26.30;58.80
7970;DHT22;4030;52.362;9.206;2022-10-22T11:43:10;26.50;58.80
7970;DHT22;4030;52.362;9.206;2022-10-22T11:45:39;26.60;58.70
7970;DHT22;4030;52.362;9.206;2022-10-22T12:11:37;24.50;60.00
7970;DHT22;4030;52.362;9.206;2022-10-22T12:14:13;24.70;60.10
7970;DHT22;4030;52.362;9.206;2022-10-22T12:22:16;24.20;60.90
7970;DHT22;4030;52.362;9.206;2022-10-22T12:24:46;24.10;61.30
7970;DHT22;4030;52.362;9.206;2022-10-22T12:27:25;24.00;61.40
7970;DHT22;4030;52.362;9.206;2022-10-22T12:29:56;23.70;61.50
7970;DHT22;4030;52.362;9.206;2022-10-22T12:32:35;23.60;61.90
7970;DHT22;4030;52.362;9.206;2022-10-22T12:35:20;23.50;62.20
7970;DHT22;4030;52.362;9.206;2022-10-22T12:37:56;23.30;62.40
7970;DHT22;4030;52.362;9.206;2022-10-22T12:40:32;23.10;62.40
7970;DHT22;4030;52.362;9.206;2022-10-22T12:43:03;23.00;62.70
7970;DHT22;4030;52.362;9.206;2022-10-22T12:45:35;22.80;63.00
7970;DHT22;4030;52.362;9.206;2022-10-22T12:48:05;22.80;63.30
7970;DHT22;4030;52.362;9.206;2022-10-22T12:50:40;22.80;63.50
7970;DHT22;4030;52.362;9.206;2022-10-22T12:53:21;22.60;63.60
7970;DHT22;4030;52.362;9.206;2022-10-22T12:55:51;22.60;63.70
7970;DHT22;4030;52.362;9.206;2022-10-22T12:58:21;22.60;63.50
7970;DHT22;4030;52.362;9.206;2022-10-22T13:00:56;22.60;63.60
7970;DHT22;4030;52.362;9.206;2022-10-22T13:03:32;23.50;62.80
7970;DHT22;4030;52.362;9.206;2022-10-22T13:11:41;28.20;51.80
7970;DHT22;4030;52.362;9.206;2022-10-22T13:14:19;29.60;49.00
7970;DHT22;4030;52.362;9.206;2022-10-22T13:17:16;29.50;48.60
7970;DHT22;4030;52.362;9.206;2022-10-22T13:27:42;26.30;53.60
7970;DHT22;4030;52.362;9.206;2022-10-22T13:30:21;25.70;54.60
7970;DHT22;4030;52.362;9.206;2022-10-22T13:32:55;25.10;55.50
7970;DHT22;4030;52.362;9.206;2022-10-22T13:35:25;24.60;56.30
7970;DHT22;4030;52.362;9.206;2022-10-22T13:37:53;24.30;57.10
7970;DHT22;4030;52.362;9.206;2022-10-22T13:42:45;23.70;58.10
7970;DHT22;4030;52.362;9.206;2022-10-22T13:45:12;23.40;58.40
7970;DHT22;4030;52.362;9.206;2022-10-22T13:47:38;23.10;58.60
7970;DHT22;4030;52.362;9.206;2022-10-22T13:50:14;23.10;59.00
7970;DHT22;4030;52.362;9.206;2022-10-22T13:52:48;23.00;59.30
7970;DHT22;4030;52.362;9.206;2022-10-22T13:55:21;22.90;59.40
7970;DHT22;4030;52.362;9.206;2022-10-22T13:58:13;22.80;59.60
7970;DHT22;4030;52.362;9.206;2022-10-22T14:00:46;22.70;59.80
7970;DHT22;4030;52.362;9.206;2022-10-22T14:03:16;22.70;60.10
7970;DHT22;4030;52.362;9.206;2022-10-22T14:05:46;22.60;60.10
7970;DHT22;4030;52.362;9.206;2022-10-22T14:08:14;22.60;60.40
7970;DHT22;4030;52.362;9.206;2022-10-22T14:10:42;22.50;60.60
7970;DHT22;4030;52.362;9.206;2022-10-22T14:13:12;22.40;60.70
7970;DHT22;4030;52.362;9.206;2022-10-22T14:15:39;22.20;60.90
7970;DHT22;4030;52.362;9.206;2022-10-22T14:18:06;22.10;61.10
7970;DHT22;4030;52.362;9.206;2022-10-22T14:20:36;22.10;61.50
7970;DHT22;4030;52.362;9.206;2022-10-22T14:23:26;22.10;61.60
7970;DHT22;4030;52.362;9.206;2022-10-22T14:25:53;21.90;61.90
7970;DHT22;4030;52.362;9.206;2022-10-22T14:28:20;21.70;61.90
7970;DHT22;4030;52.362;9.206;2022-10-22T14:30:46;21.70;62.20
7970;DHT22;4030;52.362;9.206;2022-10-22T14:33:18;21.50;62.30
7970;DHT22;4030;52.362;9.206;2022-10-22T14:35:46;21.50;62.50
7970;DHT22;4030;52.362;9.206;2022-10-22T14:43:30;21.30;62.80
7970;DHT22;4030;52.362;9.206;2022-10-22T14:45:56;21.20;63.00
7970;DHT22;4030;52.362;9.206;2022-10-22T14:48:22;21.20;63.10
7970;DHT22;4030;52.362;9.206;2022-10-22T14:50:48;21.10;63.20
7970;DHT22;4030;52.362;9.206;2022-10-22T14:53:15;21.10;63.50
7970;DHT22;4030;52.362;9.206;2022-10-22T14:55:43;21.10;63.70
7970;DHT22;4030;52.362;9.206;2022-10-22T15:00:40;20.80;64.20
7970;DHT22;4030;52.362;9.206;2022-10-22T15:05:32;20.80;64.50
7970;DHT22;4030;52.362;9.206;2022-10-22T15:07:58;20.70;64.50
7970;DHT22;4030;52.362;9.206;2022-10-22T15:10:25;20.70;64.60
7970;DHT22;4030;52.362;9.206;2022-10-22T15:12:51;20.60;64.60
7970;DHT22;4030;52.362;9.206;2022-10-22T15:15:16;20.50;64.80
7970;DHT22;4030;52.362;9.206;2022-10-22T15:17:42;20.40;64.80
7970;DHT22;4030;52.362;9.206;2022-10-22T15:20:08;20.30;64.80
7970;DHT22;4030;52.362;9.206;2022-10-22T15:22:34;20.40;65.10
7970;DHT22;4030;52.362;9.206;2022-10-22T15:25:06;20.30;65.00
7970;DHT22;4030;52.362;9.206;2022-10-22T15:27:33;20.30;65.30
7970;DHT22;4030;52.362;9.206;2022-10-22T15:29:59;20.10;65.60
7970;DHT22;4030;52.362;9.206;2022-10-22T15:32:26;20.10;66.00
7970;DHT22;4030;52.362;9.206;2022-10-22T15:34:54;20.00;66.40
7970;DHT22;4030;52.362;9.206;2022-10-22T15:37:21;20.00;66.60
7970;DHT22;4030;52.362;9.206;2022-10-22T15:39:47;19.80;66.80
7970;DHT22;4030;52.362;9.206;2022-10-22T15:42:13;19.90;67.00
7970;DHT22;4030;52.362;9.206;2022-10-22T15:44:39;19.90;67.20
7970;DHT22;4030;52.362;9.206;2022-10-22T15:47:06;19.80;67.20
7970;DHT22;4030;52.362;9.206;2022-10-22T15:49:34;19.80;67.40
7970;DHT22;4030;52.362;9.206;2022-10-22T15:52:02;19.70;67.50
7970;DHT22;4030;52.362;9.206;2022-10-22T15:54:29;19.80;67.80
7970;DHT22;4030;52.362;9.206;2022-10-22T15:56:55;19.70;67.80
7970;DHT22;4030;52.362;9.206;2022-10-22T15:59:22;19.70;68.00
7970;DHT22;4030;52.362;9.206;2022-10-22T16:01:48;19.60;68.00
7970;DHT22;4030;52.362;9.206;2022-10-22T16:06:45;19.60;68.20
7970;DHT22;4030;52.362;9.206;2022-10-22T16:09:15;19.50;68.20
7970;DHT22;4030;52.362;9.206;2022-10-22T16:11:43;19.50;68.30
7970;DHT22;4030;52.362;9.206;2022-10-22T16:14:11;19.40;68.40
7970;DHT22;4030;52.362;9.206;2022-10-22T16:16:41;19.40;68.60
7970;DHT22;4030;52.362;9.206;2022-10-22T16:19:13;19.40;68.70
7970;DHT22;4030;52.362;9.206;2022-10-22T16:21:40;19.40;68.80
7970;DHT22;4030;52.362;9.206;2022-10-22T16:24:07;19.40;69.00
7970;DHT22;4030;52.362;9.206;2022-10-22T16:31:26;19.10;68.90
7970;DHT22;4030;52.362;9.206;2022-10-22T16:36:19;19.20;69.20
7970;DHT22;4030;52.362;9.206;2022-10-22T16:38:46;19.20;69.20
7970;DHT22;4030;52.362;9.206;2022-10-22T16:41:21;19.20;69.30
7970;DHT22;4030;52.362;9.206;2022-10-22T16:43:49;19.10;69.30
7970;DHT22;4030;52.362;9.206;2022-10-22T16:46:21;19.00;69.30
7970;DHT22;4030;52.362;9.206;2022-10-22T16:48:52;19.00;69.30
7970;DHT22;4030;52.362;9.206;2022-10-22T16:51:21;19.00;69.50
7970;DHT22;4030;52.362;9.206;2022-10-22T16:53:50;19.00;69.50
7970;DHT22;4030;52.362;9.206;2022-10-22T16:58:50;18.90;69.60
7970;DHT22;4030;52.362;9.206;2022-10-22T17:01:19;18.90;69.70
7970;DHT22;4030;52.362;9.206;2022-10-22T17:03:46;18.90;69.80
7970;DHT22;4030;52.362;9.206;2022-10-22T17:08:39;18.80;69.80
7970;DHT22;4030;52.362;9.206;2022-10-22T17:11:14;18.70;69.90
7970;DHT22;4030;52.362;9.206;2022-10-22T17:13:44;18.80;70.00
7970;DHT22;4030;52.362;9.206;2022-10-22T17:16:12;18.70;70.00
7970;DHT22;4030;52.362;9.206;2022-10-22T17:18:40;18.60;70.00
7970;DHT22;4030;52.362;9.206;2022-10-22T17:21:08;18.80;70.30
7970;DHT22;4030;52.362;9.206;2022-10-22T17:23:35;18.60;70.10
7970;DHT22;4030;52.362;9.206;2022-10-22T17:26:06;18.60;70.10
7970;DHT22;4030;52.362;9.206;2022-10-22T17:28:34;18.60;70.30
7970;DHT22;4030;52.362;9.206;2022-10-22T17:33:46;18.50;70.30
7970;DHT22;4030;52.362;9.206;2022-10-22T17:36:13;18.60;70.60
7970;DHT22;4030;52.362;9.206;2022-10-22T17:38:40;18.50;70.60
7970;DHT22;4030;52.362;9.206;2022-10-22T17:41:07;18.40;70.50
7970;DHT22;4030;52.362;9.206;2022-10-22T17:43:34;18.40;70.60
7970;DHT22;4030;52.362;9.206;2022-10-22T17:46:08;18.40;70.60
7970;DHT22;4030;52.362;9.206;2022-10-22T17:48:35;18.30;70.60
7970;DHT22;4030;52.362;9.206;2022-10-22T17:51:08;18.30;70.90
7970;DHT22;4030;52.362;9.206;2022-10-22T17:53:34;18.30;72.70
7970;DHT22;4030;52.362;9.206;2022-10-22T17:56:03;18.30;74.20
7970;DHT22;4030;52.362;9.206;2022-10-22T17:58:34;18.40;74.60
7970;DHT22;4030;52.362;9.206;2022-10-22T18:01:01;18.30;74.30
7970;DHT22;4030;52.362;9.206;2022-10-22T18:05:54;18.20;74.10
7970;DHT22;4030;52.362;9.206;2022-10-22T18:08:20;18.20;73.90
7970;DHT22;4030;52.362;9.206;2022-10-22T18:35:10;17.90;72.70
7970;DHT22;4030;52.362;9.206;2022-10-22T18:37:36;17.70;72.50
7970;DHT22;4030;52.362;9.206;2022-10-22T18:40:04;17.80;72.60
7970;DHT22;4030;52.362;9.206;2022-10-22T18:42:30;17.70;72.40
7970;DHT22;4030;52.362;9.206;2022-10-22T18:44:56;17.70;72.40
7970;DHT22;4030;52.362;9.206;2022-10-22T18:47:21;17.80;72.50
7970;DHT22;4030;52.362;9.206;2022-10-22T18:52:15;17.70;72.40
7970;DHT22;4030;52.362;9.206;2022-10-22T19:04:27;17.60;72.50
7970;DHT22;4030;52.362;9.206;2022-10-22T19:06:57;17.60;72.60
7970;DHT22;4030;52.362;9.206;2022-10-22T19:09:24;17.50;72.50
7970;DHT22;4030;52.362;9.206;2022-10-22T19:11:50;17.50;72.40
7970;DHT22;4030;52.362;9.206;2022-10-22T19:14:16;17.40;72.30
7970;DHT22;4030;52.362;9.206;2022-10-22T19:19:10;17.40;72.30
7970;DHT22;4030;52.362;9.206;2022-10-22T19:28:59;17.40;72.20
7970;DHT22;4030;52.362;9.206;2022-10-22T19:33:52;17.30;72.10
7970;DHT22;4030;52.362;9.206;2022-10-22T19:36:20;17.30;72.10
7970;DHT22;4030;52.362;9.206;2022-10-22T19:41:17;17.30;71.90
7970;DHT22;4030;52.362;9.206;2022-10-22T19:43:44;17.30;71.90
7970;DHT22;4030;52.362;9.206;2022-10-22T19:46:13;17.40;72.00
7970;DHT22;4030;52.362;9.206;2022-10-22T19:51:07;17.20;71.70
7970;DHT22;4030;52.362;9.206;2022-10-22T19:53:36;17.10;71.70
7970;DHT22;4030;52.362;9.206;2022-10-22T19:56:07;17.10;71.60
7970;DHT22;4030;52.362;9.206;2022-10-22T19:58:34;17.20;71.80
7970;DHT22;4030;52.362;9.206;2022-10-22T20:01:10;17.10;71.60
7970;DHT22;4030;52.362;9.206;2022-10-22T20:03:37;17.10;71.60
7970;DHT22;4030;52.362;9.206;2022-10-22T20:06:05;17.10;71.50
7970;DHT22;4030;52.362;9.206;2022-10-22T20:08:33;17.20;71.70
7970;DHT22;4030;52.362;9.206;2022-10-22T20:11:03;17.10;71.60
7970;DHT22;4030;52.362;9.206;2022-10-22T20:13:31;17.10;71.60
7970;DHT22;4030;52.362;9.206;2022-10-22T20:15:57;17.20;71.70
7970;DHT22;4030;52.362;9.206;2022-10-22T20:18:23;17.10;71.60
7970;DHT22;4030;52.362;9.206;2022-10-22T20:20:49;17.10;71.60
7970;DHT22;4030;52.362;9.206;2022-10-22T20:25:43;20.20;74.80
7970;DHT22;4030;52.362;9.206;2022-10-22T20:30:42;16.90;71.30
7970;DHT22;4030;52.362;9.206;2022-10-22T20:35:35;16.90;71.30
7970;DHT22;4030;52.362;9.206;2022-10-22T20:38:02;16.90;71.30
7970;DHT22;4030;52.362;9.206;2022-10-22T20:40:28;16.90;71.30
7970;DHT22;4030;52.362;9.206;2022-10-22T20:42:57;16.80;71.20
7970;DHT22;4030;52.362;9.206;2022-10-22T20:45:23;16.70;71.00
7970;DHT22;4030;52.362;9.206;2022-10-22T20:47:49;16.70;71.10
7970;DHT22;4030;52.362;9.206;2022-10-22T20:50:16;16.70;71.00
7970;DHT22;4030;52.362;9.206;2022-10-22T20:52:43;16.70;71.00
7970;DHT22;4030;52.362;9.206;2022-10-22T20:55:09;16.60;70.90
7970;DHT22;4030;52.362;9.206;2022-10-22T21:02:27;16.70;71.80
7970;DHT22;4030;52.362;9.206;2022-10-22T21:24:21;16.40;71.30
7970;DHT22;4030;52.362;9.206;2022-10-22T21:26:49;16.40;71.40
7970;DHT22;4030;52.362;9.206;2022-10-22T21:29:15;16.40;71.30
7970;DHT22;4030;52.362;9.206;2022-10-22T21:31:40;16.40;71.30
7970;DHT22;4030;52.362;9.206;2022-10-22T21:34:07;16.30;71.20
7970;DHT22;4030;52.362;9.206;2022-10-22T21:36:33;16.30;71.20
7970;DHT22;4030;52.362;9.206;2022-10-22T21:39:00;16.50;71.40
7970;DHT22;4030;52.362;9.206;2022-10-22T21:41:26;16.20;71.00
7970;DHT22;4030;52.362;9.206;2022-10-22T21:48:46;16.10;70.90
7970;DHT22;4030;52.362;9.206;2022-10-22T21:51:17;16.10;70.80
7970;DHT22;4030;52.362;9.206;2022-10-22T21:53:43;16.10;70.80
7970;DHT22;4030;52.362;9.206;2022-10-22T21:56:13;16.00;70.70
7970;DHT22;4030;52.362;9.206;2022-10-22T22:06:00;16.00;70.60
7970;DHT22;4030;52.362;9.206;2022-10-22T22:08:28;16.00;70.70
7970;DHT22;4030;52.362;9.206;2022-10-22T22:11:02;16.00;70.70
7970;DHT22;4030;52.362;9.206;2022-10-22T22:13:30;15.90;70.50
7970;DHT22;4030;52.362;9.206;2022-10-22T22:16:01;15.90;70.50
7970;DHT22;4030;52.362;9.206;2022-10-22T22:18:38;15.90;70.40
7970;DHT22;4030;52.362;9.206;2022-10-22T22:21:07;15.80;70.40
7970;DHT22;4030;52.362;9.206;2022-10-22T22:23:39;15.90;70.40
7970;DHT22;4030;52.362;9.206;2022-10-22T22:26:06;15.80;70.30
7970;DHT22;4030;52.362;9.206;2022-10-22T22:28:33;15.70;70.30
7970;DHT22;4030;52.362;9.206;2022-10-22T22:30:59;15.70;70.10
7970;DHT22;4030;52.362;9.206;2022-10-22T22:33:25;15.70;70.10
7970;DHT22;4030;52.362;9.206;2022-10-22T22:35:52;15.60;70.00
7970;DHT22;4030;52.362;9.206;2022-10-22T22:38:18;15.60;70.00
7970;DHT22;4030;52.362;9.206;2022-10-22T22:43:10;15.60;69.90
7970;DHT22;4030;52.362;9.206;2022-10-22T22:45:36;15.60;69.90
7970;DHT22;4030;52.362;9.206;2022-10-22T22:48:04;15.70;70.00
7970;DHT22;4030;52.362;9.206;2022-10-22T22:55:22;15.50;69.80
7970;DHT22;4030;52.362;9.206;2022-10-22T22:57:48;15.50;69.80
7970;DHT22;4030;52.362;9.206;2022-10-22T23:00:14;15.40;69.60
7970;DHT22;4030;52.362;9.206;2022-10-22T23:02:40;15.40;69.70
7970;DHT22;4030;52.362;9.206;2022-10-22T23:05:06;15.40;69.60